Time;durP1;ratioP1;P1;durP2;ratioP2;P2;SDS_P1;SDS_P2;PMS_P1;PMS_P2;Temp;Humidity;BMP_temperature;BMP_pressure;BME280_temperature;BME280_humidity;BME280_pressure;Samples;Min_cycle;Max_cycle;Signal;HPM_P1;HPM_P2
2023/05/26 00:00:12;;;;;;;;;12.50;12.00;;;;;-147.17;100.00;3952.94;5070684;27;51041;-58
2023/05/26 00:02:39;;;;;;;;;12.25;11.50;;;;;-147.17;100.00;4201.94;5052214;28;51269;-58
2023/05/26 00:05:08;;;;;;;;;14.75;14.50;;;;;-147.17;100.00;2708.13;5066306;28;51085;-58
2023/05/26 00:07:38;;;;;;;;;11.50;11.00;;;;;-147.17;100.00;3206.00;5072228;28;51094;-57
2023/05/26 00:10:04;;;;;;;;;13.00;12.50;;;;;-147.17;100.00;2459.22;5069572;28;51254;-58
2023/05/26 00:12:29;;;;;;;;;14.25;13.75;;;;;-147.17;100.00;2957.06;5070659;28;51212;-58
2023/05/26 00:14:55;;;;;;;;;13.00;12.25;;;;;-147.17;100.00;2957.06;5063133;28;51147;-58
2023/05/26 00:17:20;;;;;;;;;13.50;13.25;;;;;-147.17;100.00;2459.22;5060659;28;51003;-58
2023/05/26 00:19:48;;;;;;;;;15.00;12.50;;;;;-147.17;100.00;2210.31;5070570;28;51004;-58
2023/05/26 00:22:15;;;;;;;;;12.50;12.00;;;;;-147.17;100.00;1712.56;5069278;27;51310;-58
2023/05/26 00:24:41;;;;;;;;;14.00;13.25;;;;;-147.17;100.00;1463.72;5064042;28;51206;-59
2023/05/26 00:27:06;;;;;;;;;12.25;12.25;;;;;-147.17;100.00;219.72;5074173;28;51080;-59
2023/05/26 00:29:33;;;;;;;;;14.00;13.25;;;;;-147.17;100.00;468.50;5074921;28;51073;-59
2023/05/26 00:31:58;;;;;;;;;13.75;13.75;;;;;-147.17;100.00;219.72;5069024;27;51128;-58
2023/05/26 00:34:23;;;;;;;;;14.00;14.00;;;;;-147.17;100.00;-29.03;5069740;28;51153;-58
2023/05/26 00:36:49;;;;;;;;;13.25;13.00;;;;;-147.17;100.00;-526.47;5062822;28;59107;-58
2023/05/26 00:39:14;;;;;;;;;14.75;14.25;;;;;-147.17;100.00;-1521.19;5061965;28;51246;-58
2023/05/26 00:41:39;;;;;;;;;13.25;12.25;;;;;-147.17;100.00;-1769.84;5072420;28;51412;-58
2023/05/26 00:44:05;;;;;;;;;14.25;13.25;;;;;-147.17;100.00;-2267.06;5074408;28;52085;-58
2023/05/26 00:46:30;;;;;;;;;13.75;13.00;;;;;-147.17;100.00;-2764.22;5073148;27;51312;-58
2023/05/26 00:48:56;;;;;;;;;15.75;14.75;;;;;-147.17;100.00;-3509.84;5052491;28;51025;-58
2023/05/26 00:51:22;;;;;;;;;14.25;14.00;;;;;-147.17;100.00;-3758.38;5067471;28;51063;-57
2023/05/26 00:53:48;;;;;;;;;18.25;17.50;;;;;-147.17;100.00;-5000.69;5070666;28;51053;-59
2023/05/26 00:56:17;;;;;;;;;17.50;16.00;;;;;-147.17;100.00;-4752.25;5068476;28;51023;-58
2023/05/26 00:58:43;;;;;;;;;16.50;16.50;;;;;-147.17;100.00;-5000.69;5068578;28;51464;-57
2023/05/26 01:01:10;;;;;;;;;19.25;18.00;;;;;-147.17;100.00;-5745.88;5062178;28;51011;-58
2023/05/26 01:03:37;;;;;;;;;14.75;14.00;;;;;-147.17;100.00;-6242.59;5070716;27;52226;-59
2023/05/26 01:06:03;;;;;;;;;14.25;13.25;;;;;-147.17;100.00;-6987.56;5071101;28;52422;-58
2023/05/26 01:08:28;;;;;;;;;17.75;17.00;;;;;-147.17;100.00;-7484.09;5043270;28;53342;-58
2023/05/26 01:11:00;;;;;;;;;18.25;18.00;;;;;-147.17;100.00;-7484.09;5068058;27;51385;-58
2023/05/26 01:13:29;;;;;;;;;19.50;17.75;;;;;-147.17;100.00;-7732.34;5067207;28;52085;-58
2023/05/26 01:16:03;;;;;;;;;21.00;20.00;;;;;-147.17;100.00;-8477.03;5059818;28;51178;-59
2023/05/26 01:19:00;;;;;;;;;19.50;18.75;;;;;-147.17;100.00;-8477.03;5067622;27;51059;-58
2023/05/26 01:21:30;;;;;;;;;33.75;30.25;;;;;-147.17;100.00;-8973.38;5068901;28;51243;-59
2023/05/26 01:24:07;;;;;;;;;34.25;31.75;;;;;-147.17;100.00;-9469.69;5065857;28;52093;-59
2023/05/26 01:26:42;;;;;;;;;33.00;30.50;;;;;-147.17;100.00;-9469.69;5065801;28;51234;-59
2023/05/26 01:29:12;;;;;;;;;27.25;26.75;;;;;-147.17;100.00;-10462.09;5067574;28;51236;-58
2023/05/26 01:31:39;;;;;;;;;23.00;21.00;;;;;-147.17;100.00;-10710.16;5052054;28;51364;-57
2023/05/26 01:34:05;;;;;;;;;20.50;18.75;;;;;-147.17;100.00;-10958.19;5072196;28;51894;-58
2023/05/26 01:36:30;;;;;;;;;20.50;20.50;;;;;-147.17;100.00;-11454.25;5062283;27;51115;-58
2023/05/26 01:38:56;;;;;;;;;20.00;19.50;;;;;-147.17;100.00;-12446.13;5067236;28;51348;-59
2023/05/26 01:41:44;;;;;;;;;21.75;20.00;;;;;-147.17;100.00;-12694.06;5068910;28;50994;-58
2023/05/26 01:44:23;;;;;;;;;17.25;17.00;;;;;-147.17;100.00;-12694.06;5074474;27;51197;-59
2023/05/26 01:46:50;;;;;;;;;19.75;19.00;;;;;-147.17;100.00;-13189.88;5069749;28;51341;-59
2023/05/26 01:49:20;;;;;;;;;18.50;18.50;;;;;-147.17;100.00;-13189.88;5069209;28;51180;-58
2023/05/26 01:51:50;;;;;;;;;19.75;18.00;;;;;-147.17;100.00;-12941.97;5065520;27;52807;-58
2023/05/26 01:54:17;;;;;;;;;21.00;20.00;;;;;-147.17;100.00;-13189.88;5073292;28;51715;-58
2023/05/26 01:56:44;;;;;;;;;22.50;20.50;;;;;-147.17;100.00;-13437.75;5072407;28;51033;-58
2023/05/26 01:59:11;;;;;;;;;20.25;19.00;;;;;-147.17;100.00;-13685.63;5072678;28;51013;-58
2023/05/26 02:01:36;;;;;;;;;21.50;19.75;;;;;-147.17;100.00;-14429.16;5050651;28;51270;-58
2023/05/26 02:04:01;;;;;;;;;18.00;18.00;;;;;-147.17;100.00;-14429.16;5072346;28;56480;-59
2023/05/26 02:06:27;;;;;;;;;15.25;14.25;;;;;-147.17;100.00;-14676.94;5070597;28;51001;-59
2023/05/26 02:08:52;;;;;;;;;19.25;18.25;;;;;-147.17;100.00;-14676.94;5066807;27;51284;-58
2023/05/26 02:11:18;;;;;;;;;20.75;18.50;;;;;-147.17;100.00;-14676.94;5065128;28;51141;-59
2023/05/26 02:13:45;;;;;;;;;17.00;16.50;;;;;-147.17;100.00;-14676.94;5066175;28;51512;-58
2023/05/26 02:16:11;;;;;;;;;17.50;15.50;;;;;-147.17;100.00;-14924.75;5059220;28;51130;-59
2023/05/26 02:18:36;;;;;;;;;22.25;21.00;;;;;-147.17;100.00;-14924.75;5068085;28;51165;-59
2023/05/26 02:21:02;;;;;;;;;18.50;18.00;;;;;-147.17;100.00;-15172.50;5049727;28;51214;-58
2023/05/26 02:23:27;;;;;;;;;18.25;18.00;;;;;-147.17;100.00;-15420.25;5070497;28;51971;-59
2023/05/26 02:25:52;;;;;;;;;18.25;17.25;;;;;-147.17;100.00;-15420.25;5072741;28;54908;-59
2023/05/26 02:28:18;;;;;;;;;21.00;19.50;;;;;-147.17;100.00;-15420.25;5067406;27;51226;-59
2023/05/26 02:30:43;;;;;;;;;17.50;16.00;;;;;-147.17;100.00;-15668.00;5066891;28;51615;-58
2023/05/26 02:33:09;;;;;;;;;20.25;19.50;;;;;-147.17;100.00;-15668.00;5059571;28;53581;-58
2023/05/26 02:35:35;;;;;;;;;17.75;17.00;;;;;-147.17;100.00;-15915.72;5070779;28;50961;-58
2023/05/26 02:38:00;;;;;;;;;16.25;15.50;;;;;-147.17;100.00;-15915.72;5070252;27;51159;-58
2023/05/26 02:40:25;;;;;;;;;15.75;15.50;;;;;-147.17;100.00;-15915.72;5069620;28;51378;-58
2023/05/26 02:42:51;;;;;;;;;21.00;20.25;;;;;-147.17;100.00;-15915.72;5070902;28;50976;-59
2023/05/26 02:45:16;;;;;;;;;18.00;17.25;;;;;-147.17;100.00;-15917.19;5069080;27;62724;-57
2023/05/26 02:47:41;;;;;;;;;17.75;16.75;;;;;-147.17;100.00;-15917.19;5043771;28;51317;-58
2023/05/26 02:50:07;;;;;;;;;19.00;18.75;;;;;-147.17;100.00;-15917.19;5048521;28;51168;-57
2023/05/26 02:52:32;;;;;;;;;16.00;16.00;;;;;-147.17;100.00;-15917.19;5051369;28;52504;-57
2023/05/26 02:54:57;;;;;;;;;18.25;16.75;;;;;-147.17;100.00;-15917.19;5069744;28;50953;-58
2023/05/26 02:57:23;;;;;;;;;15.50;14.50;;;;;-147.17;100.00;-15917.19;5070990;28;51010;-58
2023/05/26 02:59:48;;;;;;;;;17.25;16.75;;;;;-147.17;100.00;-15917.19;5069377;28;51199;-57
2023/05/26 03:02:13;;;;;;;;;16.25;15.00;;;;;-147.17;100.00;-15917.19;5071334;28;50929;-57
2023/05/26 03:04:39;;;;;;;;;16.00;15.25;;;;;-147.17;100.00;-15917.19;5064207;28;51233;-57
2023/05/26 03:07:06;;;;;;;;;14.75;14.75;;;;;-147.17;100.00;-15917.19;5071543;28;51094;-59
2023/05/26 03:09:31;;;;;;;;;14.00;12.50;;;;;-147.17;100.00;-15917.19;5070210;28;51116;-58
2023/05/26 03:11:56;;;;;;;;;15.00;14.00;;;;;-147.17;100.00;-15917.19;5060915;28;51118;-59
2023/05/26 03:14:21;;;;;;;;;13.00;11.50;;;;;-147.17;100.00;-15917.19;5062020;28;61096;-59
2023/05/26 03:16:47;;;;;;;;;13.00;13.00;;;;;-147.17;100.00;-15917.19;5058491;28;51289;-58
2023/05/26 03:19:12;;;;;;;;;15.00;14.50;;;;;-147.17;100.00;-15917.19;5071910;27;51135;-58
2023/05/26 03:21:38;;;;;;;;;13.25;12.50;;;;;-147.17;100.00;-15917.19;5069254;28;51186;-59
2023/05/26 03:24:03;;;;;;;;;14.25;14.00;;;;;-147.17;100.00;-15917.19;5067833;27;51105;-59
2023/05/26 03:26:29;;;;;;;;;17.00;17.00;;;;;-147.17;100.00;-15917.19;5055816;28;51143;-59
2023/05/26 03:28:54;;;;;;;;;16.25;15.75;;;;;-147.17;100.00;-15917.19;5061136;28;50946;-59
2023/05/26 03:31:20;;;;;;;;;15.00;13.50;;;;;-147.17;100.00;-15917.19;5070170;28;53272;-59
2023/05/26 03:33:45;;;;;;;;;17.00;14.50;;;;;-147.17;100.00;-15917.19;5062012;27;50969;-59
2023/05/26 03:36:10;;;;;;;;;12.75;12.50;;;;;-147.17;100.00;-15917.19;5018838;28;50992;-59
2023/05/26 03:38:36;;;;;;;;;14.75;13.50;;;;;-147.17;100.00;-15917.19;5071394;28;51222;-59
2023/05/26 03:41:01;;;;;;;;;13.00;12.00;;;;;-147.17;100.00;-15917.19;5069894;28;51291;-59
2023/05/26 03:43:26;;;;;;;;;17.75;16.75;;;;;-147.17;100.00;-15917.19;5070774;28;50868;-59
2023/05/26 03:45:52;;;;;;;;;13.25;12.50;;;;;-147.17;100.00;-15917.19;5068111;28;51343;-59
2023/05/26 03:48:18;;;;;;;;;14.25;13.00;;;;;-147.17;100.00;-15917.19;5055555;28;51043;-59
2023/05/26 03:50:46;;;;;;;;;13.75;12.00;;;;;-147.17;100.00;-15917.19;5069692;27;51132;-59
2023/05/26 03:53:11;;;;;;;;;14.00;12.25;;;;;-147.17;100.00;-15917.19;5058088;28;51105;-58
2023/05/26 03:55:37;;;;;;;;;14.50;13.75;;;;;-147.17;100.00;-15917.19;5069538;28;51392;-58
2023/05/26 03:58:03;;;;;;;;;13.50;13.50;;;;;-147.17;100.00;-15917.19;5071431;28;50980;-58
2023/05/26 04:00:30;;;;;;;;;16.25;14.75;;;;;-147.17;100.00;-15917.19;5073053;27;51988;-59
2023/05/26 04:02:56;;;;;;;;;14.25;13.00;;;;;-147.17;100.00;-15917.19;5074452;28;51025;-58
2023/05/26 04:05:21;;;;;;;;;14.50;14.50;;;;;-147.17;100.00;-15917.19;5068166;28;51132;-58
2023/05/26 04:07:47;;;;;;;;;17.50;12.25;;;;;-147.17;100.00;-15917.19;5072888;27;51120;-58
2023/05/26 04:10:13;;;;;;;;;12.75;11.75;;;;;-147.17;100.00;-15917.19;5066812;27;53876;-59
2023/05/26 04:12:38;;;;;;;;;13.50;12.75;;;;;-147.17;100.00;-15917.19;5074400;28;51302;-59
2023/05/26 04:15:04;;;;;;;;;13.25;12.25;;;;;-147.17;100.00;-15917.19;5067674;28;51377;-59
2023/05/26 04:17:29;;;;;;;;;15.50;14.00;;;;;-147.17;100.00;-15917.19;5071284;28;50931;-59
2023/05/26 04:19:55;;;;;;;;;13.00;11.00;;;;;-147.17;100.00;-15917.19;5072806;28;51054;-57
2023/05/26 04:22:20;;;;;;;;;18.50;14.50;;;;;-147.17;100.00;-15917.19;5067910;27;51154;-58
2023/05/26 04:24:46;;;;;;;;;16.75;11.75;;;;;-147.17;100.00;-15917.19;5067046;27;51068;-59
2023/05/26 04:27:11;;;;;;;;;17.00;15.50;;;;;-147.17;100.00;-15917.19;5075220;28;51321;-59
2023/05/26 04:29:38;;;;;;;;;14.00;12.75;;;;;-147.17;100.00;-15917.19;5074710;28;51894;-58
2023/05/26 04:32:04;;;;;;;;;14.00;12.00;;;;;-147.17;100.00;-15917.19;5074615;28;50943;-58
2023/05/26 04:34:29;;;;;;;;;14.25;12.50;;;;;-147.17;100.00;-15917.19;5072657;28;51203;-57
2023/05/26 04:36:55;;;;;;;;;13.00;12.00;;;;;-147.17;100.00;-15917.19;5074912;28;51159;-57
2023/05/26 04:39:21;;;;;;;;;14.25;13.00;;;;;-147.17;100.00;-15917.19;5073627;27;52012;-58
2023/05/26 04:41:46;;;;;;;;;14.50;12.25;;;;;-147.17;100.00;-15917.19;5065552;28;50962;-57
2023/05/26 04:44:12;;;;;;;;;16.75;12.75;;;;;-147.17;100.00;-15917.19;5074698;28;50898;-58
2023/05/26 04:46:38;;;;;;;;;15.25;14.75;;;;;-147.17;100.00;-15917.19;5071119;27;51200;-59
2023/05/26 04:49:04;;;;;;;;;16.75;14.75;;;;;-147.17;100.00;-15917.19;5070529;28;52133;-59
2023/05/26 04:51:32;;;;;;;;;11.50;11.00;;;;;-147.17;100.00;-15917.19;5070137;28;51170;-59
2023/05/26 04:53:58;;;;;;;;;14.00;13.00;;;;;-147.17;100.00;-15917.19;5068422;28;51600;-59
2023/05/26 04:56:23;;;;;;;;;15.00;13.50;;;;;-147.17;100.00;-15917.19;5072001;27;51318;-59
2023/05/26 04:58:48;;;;;;;;;14.25;13.50;;;;;-147.17;100.00;-15917.19;5070544;28;52145;-57
2023/05/26 05:01:16;;;;;;;;;16.25;15.50;;;;;-147.17;100.00;-15917.19;5069388;28;51112;-58
2023/05/26 05:03:42;;;;;;;;;16.75;13.25;;;;;-147.17;100.00;-15917.19;5053840;28;51163;-57
2023/05/26 05:06:08;;;;;;;;;15.50;13.25;;;;;-147.17;100.00;-15917.19;5067792;28;50974;-59
2023/05/26 05:08:34;;;;;;;;;14.25;13.00;;;;;-147.17;100.00;-15917.19;5065141;28;51210;-58
2023/05/26 05:10:59;;;;;;;;;13.25;13.00;;;;;-147.17;100.00;-15917.19;5072003;28;51045;-59
2023/05/26 05:13:25;;;;;;;;;13.00;13.00;;;;;-147.17;100.00;-15917.19;5071171;27;51163;-58
2023/05/26 05:15:50;;;;;;;;;12.25;12.00;;;;;-147.17;100.00;-15917.19;5054403;27;51164;-57
2023/05/26 05:18:15;;;;;;;;;17.00;15.25;;;;;-147.17;100.00;-15917.19;5068601;28;51063;-59
2023/05/26 05:20:41;;;;;;;;;16.00;14.75;;;;;-147.17;100.00;-15917.19;5062670;28;51521;-59
2023/05/26 05:23:06;;;;;;;;;12.00;11.00;;;;;-147.17;100.00;-15420.25;5074341;28;51734;-59
2023/05/26 05:25:31;;;;;;;;;14.33;13.67;;;;;-147.17;100.00;-14676.94;5073314;28;51236;-59
2023/05/26 05:27:57;;;;;;;;;14.00;13.00;;;;;-147.17;100.00;-13437.75;5073768;28;51837;-59
2023/05/26 05:30:22;;;;;;;;;14.00;13.00;;;;;-147.17;100.00;-11454.25;5071701;27;51419;-59
2023/05/26 05:32:47;;;;;;;;;16.00;13.00;;;;;-147.17;100.00;-10710.16;5074322;28;51951;-59
2023/05/26 05:35:13;;;;;;;;;16.25;14.50;;;;;-147.17;100.00;-9221.53;5074352;28;51270;-59
2023/05/26 05:37:38;;;;;;;;;14.00;13.50;;;;;-147.17;100.00;-8477.03;5073310;28;51875;-59
2023/05/26 05:40:04;;;;;;;;;13.67;12.67;;;;;-147.17;100.00;-7732.34;5066232;28;51149;-59
2023/05/26 05:42:29;;;;;;;;;13.67;12.67;;;;;-147.17;100.00;-6242.59;5072619;28;51005;-59
2023/05/26 05:44:55;;;;;;;;;15.00;13.00;;;;;-147.17;100.00;-4255.34;5050941;27;56181;-59
2023/05/26 05:47:20;;;;;;;;;17.25;14.25;;;;;-147.17;100.00;-3509.84;5062427;27;51423;-59
2023/05/26 05:49:45;;;;;;;;;13.00;13.00;;;;;-147.17;100.00;-3509.84;5066786;28;59911;-59
2023/05/26 05:52:13;;;;;;;;;16.50;16.25;;;;;-147.17;100.00;-2018.47;5072744;28;50944;-58
2023/05/26 05:54:38;;;;;;;;;15.50;14.75;;;;;-147.17;100.00;717.28;5060507;28;51005;-59
2023/05/26 05:57:04;;;;;;;;;15.25;14.25;;;;;-147.17;100.00;4450.97;5071845;28;52009;-59
2023/05/26 05:59:29;;;;;;;;;12.50;11.75;;;;;-147.17;100.00;7939.00;5053962;28;51502;-59
2023/05/26 06:01:55;;;;;;;;;15.00;13.33;;;;;-147.17;100.00;8686.84;5072843;27;51310;-60
2023/05/26 06:04:20;;;;;;;;;17.50;17.00;;;;;-147.17;100.00;8936.16;5071531;28;51268;-60
2023/05/26 06:06:46;;;;;;;;;13.33;12.33;;;;;-147.17;100.00;10432.38;5072647;28;56828;-60
2023/05/26 06:09:11;;;;;;;;;15.25;14.50;;;;;-147.17;100.00;15923.47;5066814;28;51082;-60
2023/05/26 06:11:37;;;;;;;;;15.33;13.33;;;;;-147.17;100.00;15673.69;5067502;28;51166;-60
2023/05/26 06:14:02;;;;;;;;;12.33;11.33;;;;;-147.17;100.00;18172.06;5071444;28;51236;-59
2023/05/26 06:16:27;;;;;;;;;17.33;16.33;;;;;-147.17;100.00;19921.84;5073074;28;51821;-59
2023/05/26 06:18:52;;;;;;;;;14.00;12.67;;;;;-147.17;100.00;20922.09;5072935;28;57409;-60
2023/05/26 06:21:18;;;;;;;;;17.00;17.00;;;;;-147.17;100.00;23423.81;5058917;27;51388;-60
2023/05/26 06:23:43;;;;;;;;;17.67;14.33;;;;;-147.17;100.00;26459.31;5063087;27;51238;-60
2023/05/26 06:26:08;;;;;;;;;16.00;14.00;;;;;-147.17;100.00;25402.88;5068899;27;51416;-60
2023/05/26 06:28:34;;;;;;;;;15.67;14.33;;;;;-147.17;100.00;28741.41;5066020;28;51139;-60
2023/05/26 06:30:59;;;;;;;;;15.33;13.33;;;;;-147.17;100.00;30084.66;5073145;28;51119;-58
2023/05/26 06:33:25;;;;;;;;;15.67;15.67;;;;;-147.17;100.00;29937.78;5073506;28;51401;-59
2023/05/26 06:35:50;;;;;;;;;16.33;15.00;;;;;-147.17;100.00;32035.75;5073213;27;51613;-60
2023/05/26 06:38:16;;;;;;;;;18.00;17.00;;;;;-147.17;100.00;37527.94;5053849;28;51145;-58
2023/05/26 06:40:41;;;;;;;;;17.33;14.33;;;;;-147.17;100.00;37945.88;5073205;28;51029;-60
2023/05/26 06:43:06;;;;;;;;;11.00;11.00;;;;;-147.17;100.00;39728.13;5070625;28;51107;-60
2023/05/26 06:45:32;;;;;;;;;15.67;15.00;;;;;-147.17;100.00;38030.28;5072930;28;51759;-60
2023/05/26 06:47:57;;;;;;;;;20.33;16.33;;;;;-147.17;100.00;39123.50;5073033;28;50948;-60
2023/05/26 06:50:22;;;;;;;;;17.00;16.00;;;;;-147.17;100.00;38601.38;5069709;27;51306;-58
2023/05/26 06:52:48;;;;;;;;;14.00;13.33;;;;;-147.17;100.00;40297.50;5060948;28;51344;-58
2023/05/26 06:55:13;;;;;;;;;15.33;13.67;;;;;-147.17;100.00;40511.53;5070965;27;51086;-59
2023/05/26 06:57:39;;;;;;;;;15.00;13.00;;;;;-147.17;100.00;40438.88;5067758;28;51001;-59
2023/05/26 07:00:05;;;;;;;;;17.00;16.00;;;;;-147.17;100.00;41153.72;5072326;28;51285;-59
2023/05/26 07:02:32;;;;;;;;;15.67;14.00;;;;;-147.17;100.00;41008.38;5071659;28;50942;-59
2023/05/26 07:04:57;;;;;;;;;18.50;17.50;;;;;-147.17;100.00;42230.13;5072305;28;51198;-59
2023/05/26 07:07:22;;;;;;;;;17.50;16.50;;;;;-147.17;100.00;41874.56;5071838;28;51365;-59
2023/05/26 07:09:48;;;;;;;;;16.33;14.33;;;;;-147.17;100.00;41691.88;5071699;28;51053;-59
2023/05/26 07:12:13;;;;;;;;;16.33;16.33;;;;;-147.17;100.00;41403.16;5064850;27;51437;-59
2023/05/26 07:14:38;;;;;;;;;18.00;15.00;;;;;-147.17;100.00;41856.88;5069427;28;51155;-60
2023/05/26 07:17:04;;;;;;;;;16.00;14.00;;;;;-147.17;100.00;41939.38;5070735;28;51132;-59
2023/05/26 07:19:29;;;;;;;;;14.00;14.00;;;;;-147.17;100.00;42237.97;5072278;28;51238;-59
2023/05/26 07:21:54;;;;;;;;;13.00;12.33;;;;;-147.17;100.00;42279.22;5060393;28;51291;-59
2023/05/26 07:24:20;;;;;;;;;17.33;17.00;;;;;-147.17;100.00;42558.19;5064087;28;55053;-59
2023/05/26 07:26:45;;;;;;;;;16.33;15.33;;;;;-147.17;100.00;42996.34;5072146;28;50981;-59
2023/05/26 07:29:10;;;;;;;;;13.00;13.00;;;;;-147.17;100.00;43346.13;5051998;28;54155;-58
2023/05/26 07:31:36;;;;;;;;;12.33;11.67;;;;;-147.17;100.00;43346.13;5060411;28;51298;-59
2023/05/26 07:34:01;;;;;;;;;17.33;17.00;;;;;-147.17;100.00;43436.50;5070870;28;51208;-58
2023/05/26 07:36:26;;;;;;;;;16.00;15.00;;;;;-147.17;100.00;43418.81;5072069;28;51062;-58
2023/05/26 07:38:52;;;;;;;;;19.00;16.67;;;;;-147.17;100.00;43289.13;5083296;27;51096;-59
2023/05/26 07:41:17;;;;;;;;;14.67;14.33;;;;;-147.17;100.00;43047.44;5065756;27;50878;-59
2023/05/26 07:43:42;;;;;;;;;17.33;16.33;;;;;-147.17;100.00;43118.16;5067353;28;54941;-59
2023/05/26 07:46:08;;;;;;;;;14.00;14.00;;;;;-147.17;100.00;43192.84;5059161;27;51238;-59
2023/05/26 07:48:33;;;;;;;;;14.67;14.00;;;;;-147.17;100.00;42902.03;5071353;28;50930;-58
2023/05/26 07:50:58;;;;;;;;;17.00;16.00;;;;;-147.17;100.00;43304.84;5068576;27;50832;-59
2023/05/26 07:53:24;;;;;;;;;16.67;16.67;;;;;-147.17;100.00;43542.63;5066910;27;51117;-59
2023/05/26 07:55:49;;;;;;;;;17.00;16.00;;;;;-147.17;100.00;43181.06;5069829;28;51171;-58
2023/05/26 07:58:15;;;;;;;;;15.67;15.00;;;;;-147.17;100.00;42945.25;5068230;27;51322;-58
2023/05/26 08:00:40;;;;;;;;;15.00;13.67;;;;;-147.17;100.00;42964.91;5069874;27;51139;-58
2023/05/26 08:03:05;;;;;;;;;18.00;17.00;;;;;-147.17;100.00;43271.44;5059367;27;58381;-59
2023/05/26 08:05:31;;;;;;;;;15.67;15.00;;;;;-147.17;100.00;43412.94;5053014;28;51108;-59
2023/05/26 08:07:56;;;;;;;;;17.00;15.00;;;;;-147.17;100.00;43308.78;5066126;28;51630;-59
2023/05/26 08:10:22;;;;;;;;;13.67;13.33;;;;;-147.17;100.00;43151.56;5071800;28;51032;-59
2023/05/26 08:12:48;;;;;;;;;17.67;16.00;;;;;-147.17;100.00;43078.88;5068624;28;52136;-59
2023/05/26 08:15:15;;;;;;;;;17.67;17.00;;;;;-147.17;100.00;43100.50;5069667;28;51187;-59
2023/05/26 08:17:41;;;;;;;;;16.67;16.00;;;;;-147.17;100.00;43096.56;5071519;28;51038;-57
2023/05/26 08:20:07;;;;;;;;;17.00;15.00;;;;;-147.17;100.00;42707.53;5069236;27;51219;-58
2023/05/26 08:22:32;;;;;;;;;16.00;15.33;;;;;-147.17;100.00;42662.31;5070297;28;51952;-58
2023/05/26 08:24:58;;;;;;;;;16.33;15.67;;;;;-147.17;100.00;42332.28;5070994;28;51396;-58
2023/05/26 08:27:24;;;;;;;;;14.67;14.67;;;;;-147.17;100.00;42014.03;5070752;28;51127;-58
2023/05/26 08:29:49;;;;;;;;;16.33;15.33;;;;;-147.17;100.00;41821.50;5071141;27;50910;-58
2023/05/26 08:32:15;;;;;;;;;16.00;15.67;;;;;-147.17;100.00;41574.03;5070701;28;52423;-58
2023/05/26 08:34:42;;;;;;;;;16.00;14.67;;;;;-147.17;100.00;41860.81;5052805;28;51213;-58
2023/05/26 08:37:11;;;;;;;;;15.33;13.67;;;;;-147.17;100.00;41723.31;5061678;28;51149;-59
2023/05/26 08:39:37;;;;;;;;;17.67;16.00;;;;;-147.17;100.00;41458.13;5070210;28;51330;-58
2023/05/26 08:42:05;;;;;;;;;15.33;14.33;;;;;-147.17;100.00;41116.41;5070716;28;50953;-58
2023/05/26 08:44:33;;;;;;;;;15.67;15.00;;;;;-147.17;100.00;40727.56;5070321;28;51127;-58
2023/05/26 08:47:01;;;;;;;;;18.33;16.00;;;;;-147.17;100.00;40827.72;5063882;27;51153;-58
2023/05/26 08:49:30;;;;;;;;;13.67;13.00;;;;;-147.17;100.00;41401.19;5073472;28;51286;-58
2023/05/26 08:52:02;;;;;;;;;13.00;13.00;;;;;-147.17;100.00;41234.22;5067540;28;52259;-58
2023/05/26 08:54:28;;;;;;;;;15.00;14.33;;;;;-147.17;100.00;40961.25;5068988;28;50963;-58
2023/05/26 08:56:55;;;;;;;;;16.00;16.00;;;;;-147.17;100.00;40662.75;5057699;28;52172;-57
2023/05/26 08:59:21;;;;;;;;;14.67;13.33;;;;;-147.17;100.00;40389.81;5066085;28;51281;-57
2023/05/26 09:01:46;;;;;;;;;16.67;15.33;;;;;-147.17;100.00;40220.94;5073394;28;51911;-57
2023/05/26 09:04:11;;;;;;;;;15.67;14.33;;;;;-147.17;100.00;40537.06;5047734;28;51116;-58
2023/05/26 09:06:45;;;;;;;;;14.67;14.00;;;;;-147.17;100.00;40285.72;5068344;28;51133;-59
2023/05/26 09:09:11;;;;;;;;;16.67;15.00;;;;;-147.17;100.00;39838.06;5072168;28;51101;-59
2023/05/26 09:11:48;;;;;;;;;14.67;14.67;;;;;-147.17;100.00;39516.09;5073300;28;51710;-59
2023/05/26 09:14:19;;;;;;;;;15.67;15.00;;;;;-147.17;100.00;39152.94;5066229;28;51087;-59
2023/05/26 09:16:45;;;;;;;;;13.33;13.33;;;;;-147.17;100.00;38880.09;5072315;28;51163;-58
2023/05/26 09:19:16;;;;;;;;;12.00;12.00;;;;;-147.17;100.00;39013.56;5069219;28;51286;-59
2023/05/26 09:21:46;;;;;;;;;16.25;16.00;;;;;-147.17;100.00;39084.22;5070414;27;51129;-59
2023/05/26 09:24:15;;;;;;;;;13.33;13.00;;;;;-147.17;100.00;38699.50;5072339;28;51122;-58
2023/05/26 09:26:41;;;;;;;;;15.00;14.00;;;;;-147.17;100.00;38436.50;5060302;28;51136;-59
2023/05/26 09:29:06;;;;;;;;;17.00;15.33;;;;;-147.17;100.00;38208.84;5072203;28;51317;-61
2023/05/26 09:31:38;;;;;;;;;14.00;13.33;;;;;-147.17;100.00;37836.00;5073823;28;50935;-60
2023/05/26 09:34:04;;;;;;;;;12.00;11.67;;;;;-147.17;100.00;37843.84;5071848;28;50945;-59
2023/05/26 09:36:33;;;;;;;;;16.33;15.00;;;;;-147.17;100.00;37847.78;5066548;28;51030;-59
2023/05/26 09:39:01;;;;;;;;;15.00;14.33;;;;;-147.17;100.00;37561.28;5069965;28;51219;-68
2023/05/26 09:41:44;;;;;;;;;14.00;13.67;;;;;-147.17;100.00;37837.97;5068111;28;50898;-66
2023/05/26 09:44:12;;;;;;;;;15.33;14.00;;;;;-147.17;100.00;38047.94;5067203;28;51024;-60
2023/05/26 09:46:39;;;;;;;;;15.00;14.00;;;;;-147.17;100.00;38102.88;5069400;28;51175;-59
2023/05/26 09:49:13;;;;;;;;;13.33;13.00;;;;;-147.17;100.00;38165.69;5069775;28;52816;-59
2023/05/26 09:51:40;;;;;;;;;10.00;9.33;;;;;-147.17;100.00;38087.19;5070984;28;53153;-60
2023/05/26 09:54:06;;;;;;;;;16.00;15.00;;;;;-147.17;100.00;38181.38;5073228;27;51198;-60
2023/05/26 09:56:34;;;;;;;;;14.00;14.00;;;;;-147.17;100.00;38573.91;5070182;28;50967;-60
2023/05/26 09:59:06;;;;;;;;;15.00;14.00;;;;;-147.17;100.00;38208.84;5069789;28;51327;-60
2023/05/26 10:01:36;;;;;;;;;16.00;13.67;;;;;-147.17;100.00;38719.13;5071571;28;51721;-60
2023/05/26 10:04:08;;;;;;;;;14.33;13.00;;;;;-147.17;100.00;38206.91;5072450;28;51104;-59
2023/05/26 10:06:37;;;;;;;;;15.33;15.33;;;;;-147.17;100.00;37688.81;5073217;28;51379;-59
2023/05/26 10:09:04;;;;;;;;;18.00;17.00;;;;;-147.17;100.00;37996.91;5073912;28;51313;-61
2023/05/26 10:11:33;;;;;;;;;13.00;12.67;;;;;-147.17;100.00;38181.38;5072433;27;51945;-61
2023/05/26 10:14:00;;;;;;;;;13.00;13.00;;;;;-147.17;100.00;38644.56;5073736;28;51021;-61
2023/05/26 10:16:26;;;;;;;;;16.67;15.33;;;;;-147.17;100.00;39537.69;5073555;28;51095;-62
2023/05/26 10:18:52;;;;;;;;;8.00;8.00;;;;;-147.17;100.00;41112.47;5069941;27;51284;-62
2023/05/26 10:21:23;;;;;;;;;14.00;13.00;;;;;-147.17;100.00;43338.25;5065349;28;51038;-61
2023/05/26 10:24:04;;;;;;;;;16.33;14.33;;;;;-147.17;100.00;44487.97;5073174;28;50907;-62
2023/05/26 10:26:54;;;;;;;;;15.33;15.33;;;;;-147.17;100.00;45093.44;5068021;27;51157;-69
2023/05/26 10:29:32;;;;;;;;;15.00;15.00;;;;;-147.17;100.00;45260.56;5055713;28;51348;-67
2023/05/26 10:31:57;;;;;;;;;16.00;15.00;;;;;-147.17;100.00;45358.84;5061088;28;51015;-67
2023/05/26 10:34:36;;;;;;;;;16.33;15.67;;;;;-147.17;100.00;45520.06;5052673;28;51243;-67
2023/05/26 10:37:03;;;;;;;;;16.00;15.00;;;;;-147.17;100.00;45791.41;5073233;28;51282;-67
2023/05/26 10:39:28;;;;;;;;;16.00;15.00;;;;;-147.17;100.00;46247.63;5055129;28;51368;-69
2023/05/26 10:41:54;;;;;;;;;14.33;14.00;;;;;-147.17;100.00;46678.31;5072604;28;51362;-67
2023/05/26 10:44:39;;;;;;;;;17.67;16.33;;;;;-147.17;100.00;46839.56;5072128;27;51180;-66
2023/05/26 10:47:05;;;;;;;;;15.33;15.33;;;;;-147.17;100.00;47059.88;5065338;28;51026;-67
2023/05/26 10:49:35;;;;;;;;;21.00;18.00;;;;;-147.17;100.00;47114.94;5073074;28;50986;-66